Terminal Aerodrome Forecast
Issued by NWS

Home | Current Version | Previous Version | Text Only | Print | Product List | Glossary Off
Versions: 1 2 3 4 5 6 7 8 9 10 11 12 13 14 15 16 17 18 19

958
FTUS42 KMHX 050633 AAA
TAFOAJ
TAF AMD
KOAJ 050633Z 0507/0606 VRB04KT 5SM -RA SCT004 OVC005
     FM051330 33007KT P6SM VCSH SCT007 OVC015
     FM051500 34007KT P6SM OVC025
     FM051700 35007KT P6SM BKN050
     FM060300 03005KT 6SM -RA SCT030 OVC050
      AMD LTD TO CLD VIS AND WIND=

USA.gov is the U.S. government's official web portal to all federal, state and local government web resources and services.